Time;durP1;ratioP1;P1;durP2;ratioP2;P2;SDS_P1;SDS_P2;PMS_P1;PMS_P2;Temp;Humidity;BMP_temperature;BMP_pressure;BME280_temperature;BME280_humidity;BME280_pressure;Samples;Min_cycle;Max_cycle;Signal;HPM_P1;HPM_P2
2023/01/08 00:01:22;;;;;;;20.87;13.93;;;;;;;;;;767256;182;630635;-68
2023/01/08 00:03:48;;;;;;;20.13;13.50;;;;;;;;;;775086;181;912482;-68
2023/01/08 00:06:14;;;;;;;19.77;13.17;;;;;;;;;;769415;180;919335;-62
2023/01/08 00:08:40;;;;;;;23.40;14.87;;;;;;;;;;768315;183;918782;-69
2023/01/08 00:11:05;;;;;;;21.87;14.27;;;;;;;;;;775542;182;615671;-62
2023/01/08 00:13:31;;;;;;;22.30;13.88;;;;;;;;;;770102;180;918269;-63
2023/01/08 00:15:57;;;;;;;24.40;15.10;;;;;;;;;;773806;182;920508;-68
2023/01/08 00:18:25;;;;;;;21.10;14.23;;;;;;;;;;768965;181;925227;-68
2023/01/08 00:20:49;;;;;;;25.17;16.20;;;;;;;;;;773636;183;918895;-62
2023/01/08 00:23:15;;;;;;;24.17;16.23;;;;;;;;;;770095;181;914274;-67
2023/01/08 00:25:40;;;;;;;31.37;16.10;;;;;;;;;;775154;181;808469;-68
2023/01/08 00:28:06;;;;;;;27.60;15.07;;;;;;;;;;778573;181;816393;-62
2023/01/08 00:30:32;;;;;;;21.17;14.57;;;;;;;;;;767111;181;919339;-63
2023/01/08 00:32:58;;;;;;;22.10;14.70;;;;;;;;;;775106;181;630295;-68
2023/01/08 00:35:24;;;;;;;23.87;15.63;;;;;;;;;;780595;179;816766;-62
2023/01/08 00:37:50;;;;;;;26.17;14.87;;;;;;;;;;777669;179;918846;-62
2023/01/08 00:40:16;;;;;;;30.70;17.40;;;;;;;;;;779048;179;629432;-68
2023/01/08 00:42:41;;;;;;;26.07;16.30;;;;;;;;;;775042;180;623787;-69
2023/01/08 00:45:07;;;;;;;23.57;15.27;;;;;;;;;;778104;180;917692;-70
2023/01/08 00:47:33;;;;;;;29.03;17.17;;;;;;;;;;770385;181;816917;-70
2023/01/08 00:49:59;;;;;;;23.23;15.20;;;;;;;;;;765793;182;916191;-68
2023/01/08 00:52:25;;;;;;;23.67;15.07;;;;;;;;;;770527;182;813827;-62
2023/01/08 00:54:51;;;;;;;25.10;16.17;;;;;;;;;;770449;182;919369;-69
2023/01/08 00:57:17;;;;;;;21.73;15.30;;;;;;;;;;774292;181;919272;-68
2023/01/08 00:59:43;;;;;;;26.43;14.40;;;;;;;;;;778215;181;895911;-68
2023/01/08 01:02:08;;;;;;;28.53;17.27;;;;;;;;;;771756;181;921038;-68
2023/01/08 01:04:34;;;;;;;32.40;18.97;;;;;;;;;;773898;179;922052;-68
2023/01/08 01:07:00;;;;;;;25.50;14.50;;;;;;;;;;776289;179;920970;-68
2023/01/08 01:09:26;;;;;;;22.20;13.93;;;;;;;;;;773305;182;949802;-68
2023/01/08 01:11:52;;;;;;;23.90;16.33;;;;;;;;;;775216;181;817078;-62
2023/01/08 01:14:18;;;;;;;24.95;16.15;;;;;;;;;;768882;180;918433;-68
2023/01/08 01:16:46;;;;;;;28.07;18.17;;;;;;;;;;775254;181;816849;-68
2023/01/08 01:19:10;;;;;;;27.87;18.90;;;;;;;;;;772370;182;918410;-68
2023/01/08 01:21:35;;;;;;;27.73;16.30;;;;;;;;;;774371;182;916041;-68
2023/01/08 01:24:01;;;;;;;29.40;17.67;;;;;;;;;;773843;182;817896;-68
2023/01/08 01:26:27;;;;;;;25.73;18.00;;;;;;;;;;769448;183;823333;-62
2023/01/08 01:28:53;;;;;;;30.53;17.60;;;;;;;;;;775438;182;713535;-67
2023/01/08 01:31:19;;;;;;;28.20;16.00;;;;;;;;;;777966;181;919333;-68
2023/01/08 01:33:45;;;;;;;27.40;16.00;;;;;;;;;;758517;181;1021139;-67
2023/01/08 01:36:10;;;;;;;32.73;16.37;;;;;;;;;;754620;186;919463;-68
2023/01/08 01:38:36;;;;;;;22.20;16.20;;;;;;;;;;764431;180;916121;-62
2023/01/08 01:41:02;;;;;;;25.87;16.20;;;;;;;;;;774043;183;919223;-62
2023/01/08 01:43:34;;;;;;;25.70;16.50;;;;;;;;;;775948;179;646865;-62
2023/01/08 01:45:59;;;;;;;23.67;15.13;;;;;;;;;;777604;179;617411;-62
2023/01/08 01:48:25;;;;;;;25.10;16.13;;;;;;;;;;782886;179;631172;-68
2023/01/08 01:50:52;;;;;;;20.83;14.87;;;;;;;;;;779318;179;633376;-68
2023/01/08 01:53:17;;;;;;;25.23;15.80;;;;;;;;;;773516;180;640311;-68
2023/01/08 01:55:43;;;;;;;26.77;19.20;;;;;;;;;;767118;182;816943;-63
2023/01/08 01:58:12;;;;;;;22.03;14.60;;;;;;;;;;771826;180;919446;-62
2023/01/08 02:00:38;;;;;;;23.97;14.47;;;;;;;;;;765174;182;1022919;-68
2023/01/08 02:03:05;;;;;;;23.20;15.53;;;;;;;;;;768468;180;816842;-69
2023/01/08 02:05:30;;;;;;;23.03;16.40;;;;;;;;;;775606;181;877422;-63
2023/01/08 02:07:56;;;;;;;27.20;16.70;;;;;;;;;;772504;180;818300;-69
2023/01/08 02:10:23;;;;;;;28.60;17.40;;;;;;;;;;774185;180;919150;-69
2023/01/08 02:12:50;;;;;;;27.77;16.20;;;;;;;;;;769227;180;917923;-68
2023/01/08 02:15:16;;;;;;;28.33;16.27;;;;;;;;;;752070;183;918067;-63
2023/01/08 02:17:45;;;;;;;34.30;19.47;;;;;;;;;;759098;181;919484;-68
2023/01/08 02:20:10;;;;;;;28.63;16.90;;;;;;;;;;769976;181;919053;-68
2023/01/08 02:22:52;;;;;;;29.23;17.60;;;;;;;;;;775248;182;919157;-68
2023/01/08 02:25:34;;;;;;;30.57;18.17;;;;;;;;;;779821;179;919477;-68
2023/01/08 02:28:00;;;;;;;31.37;18.20;;;;;;;;;;774905;179;920897;-68
2023/01/08 02:30:25;;;;;;;29.27;17.73;;;;;;;;;;768878;183;919325;-68
2023/01/08 02:32:51;;;;;;;30.43;17.27;;;;;;;;;;765830;182;919832;-68
2023/01/08 02:35:17;;;;;;;29.43;17.50;;;;;;;;;;774147;181;918971;-62
2023/01/08 02:37:43;;;;;;;33.77;21.23;;;;;;;;;;772830;179;919386;-68
2023/01/08 02:40:14;;;;;;;38.53;20.37;;;;;;;;;;772496;182;919831;-63
2023/01/08 02:42:55;;;;;;;33.53;20.42;;;;;;;;;;770204;181;926652;-64
2023/01/08 02:45:36;;;;;;;36.30;21.10;;;;;;;;;;771866;180;919530;-68
2023/01/08 02:48:02;;;;;;;37.80;22.97;;;;;;;;;;767294;180;918129;-63
2023/01/08 02:50:44;;;;;;;31.03;19.93;;;;;;;;;;776005;182;816308;-69
2023/01/08 02:53:11;;;;;;;38.43;22.13;;;;;;;;;;776794;180;916701;-63
2023/01/08 02:55:37;;;;;;;31.60;20.97;;;;;;;;;;772730;181;917376;-62
2023/01/08 02:58:03;;;;;;;33.90;22.60;;;;;;;;;;769497;181;914417;-63
2023/01/08 03:00:29;;;;;;;37.40;21.83;;;;;;;;;;770776;183;912671;-68
2023/01/08 03:02:54;;;;;;;41.63;22.07;;;;;;;;;;767060;181;919062;-63
2023/01/08 03:05:20;;;;;;;31.40;20.10;;;;;;;;;;770009;180;1019067;-63
2023/01/08 03:07:46;;;;;;;37.80;21.30;;;;;;;;;;775281;181;878540;-63
2023/01/08 03:10:12;;;;;;;33.80;19.07;;;;;;;;;;754548;184;919506;-68
2023/01/08 03:12:39;;;;;;;31.73;20.60;;;;;;;;;;754908;182;918493;-69
2023/01/08 03:15:06;;;;;;;35.60;20.80;;;;;;;;;;755341;186;919198;-63
2023/01/08 03:17:32;;;;;;;37.50;20.50;;;;;;;;;;759504;185;918232;-69
2023/01/08 03:19:58;;;;;;;35.80;21.10;;;;;;;;;;768198;181;918543;-63
2023/01/08 03:22:24;;;;;;;35.72;19.90;;;;;;;;;;769439;181;918977;-68
2023/01/08 03:24:50;;;;;;;34.73;21.93;;;;;;;;;;774340;181;919537;-69
2023/01/08 03:27:16;;;;;;;34.20;22.10;;;;;;;;;;770018;182;919032;-63
2023/01/08 03:29:41;;;;;;;33.10;19.87;;;;;;;;;;773627;180;917339;-63
2023/01/08 03:32:08;;;;;;;33.88;19.92;;;;;;;;;;778254;182;817345;-63
2023/01/08 03:34:34;;;;;;;35.77;19.83;;;;;;;;;;779366;180;873177;-68
2023/01/08 03:37:00;;;;;;;30.87;21.27;;;;;;;;;;772070;181;918593;-63
2023/01/08 03:39:26;;;;;;;35.73;22.07;;;;;;;;;;771937;179;917863;-63
2023/01/08 03:41:51;;;;;;;34.53;20.00;;;;;;;;;;776395;181;816104;-68
2023/01/08 03:44:17;;;;;;;35.17;22.07;;;;;;;;;;769939;181;916672;-69
2023/01/08 03:46:44;;;;;;;30.63;20.97;;;;;;;;;;768779;183;918089;-63
2023/01/08 03:49:10;;;;;;;35.53;22.47;;;;;;;;;;770095;182;919075;-63
2023/01/08 03:51:41;;;;;;;32.20;19.23;;;;;;;;;;773144;180;919830;-63
2023/01/08 03:54:06;;;;;;;35.50;18.40;;;;;;;;;;764959;182;918556;-63
2023/01/08 03:56:32;;;;;;;30.20;20.10;;;;;;;;;;755098;183;919606;-63
2023/01/08 03:58:58;;;;;;;32.13;19.83;;;;;;;;;;767166;182;919746;-68
2023/01/08 04:01:24;;;;;;;32.13;20.83;;;;;;;;;;771622;180;918558;-68
2023/01/08 04:03:50;;;;;;;37.07;22.27;;;;;;;;;;772921;181;918418;-63
2023/01/08 04:06:16;;;;;;;36.87;21.37;;;;;;;;;;776821;179;920586;-69
2023/01/08 04:08:41;;;;;;;34.83;20.57;;;;;;;;;;772204;180;817128;-63
2023/01/08 04:11:07;;;;;;;33.13;20.70;;;;;;;;;;771392;182;919324;-70
2023/01/08 04:13:33;;;;;;;38.63;20.93;;;;;;;;;;774874;181;921006;-69
2023/01/08 04:15:59;;;;;;;36.70;23.50;;;;;;;;;;774721;180;916884;-68
2023/01/08 04:18:25;;;;;;;35.43;20.73;;;;;;;;;;775579;176;816700;-63
2023/01/08 04:20:51;;;;;;;39.90;21.00;;;;;;;;;;774997;179;812469;-69
2023/01/08 04:23:17;;;;;;;38.87;20.87;;;;;;;;;;777610;179;919530;-66
2023/01/08 04:25:42;;;;;;;35.30;22.20;;;;;;;;;;773807;180;917897;-68
2023/01/08 04:28:08;;;;;;;34.95;19.95;;;;;;;;;;774416;181;816901;-63
2023/01/08 04:30:34;;;;;;;34.23;20.70;;;;;;;;;;778739;182;918615;-63
2023/01/08 04:33:00;;;;;;;39.80;20.07;;;;;;;;;;773744;182;919130;-69
2023/01/08 04:35:26;;;;;;;36.83;20.87;;;;;;;;;;770142;181;919188;-63
2023/01/08 04:37:52;;;;;;;35.20;20.63;;;;;;;;;;775458;181;929354;-63
2023/01/08 04:40:17;;;;;;;37.10;20.88;;;;;;;;;;768051;181;919250;-68
2023/01/08 04:42:43;;;;;;;31.73;19.77;;;;;;;;;;764527;182;922011;-63
2023/01/08 04:45:09;;;;;;;30.70;17.97;;;;;;;;;;756804;182;915866;-63
2023/01/08 04:47:35;;;;;;;28.77;18.17;;;;;;;;;;756738;182;923263;-68
2023/01/08 04:50:01;;;;;;;35.40;20.90;;;;;;;;;;756098;182;919464;-63
2023/01/08 04:52:27;;;;;;;28.50;19.97;;;;;;;;;;754258;186;918749;-69
2023/01/08 04:54:53;;;;;;;35.40;21.10;;;;;;;;;;770361;182;882869;-63
2023/01/08 04:57:18;;;;;;;38.50;22.03;;;;;;;;;;766597;179;919159;-69
2023/01/08 04:59:44;;;;;;;32.22;19.87;;;;;;;;;;764520;181;922467;-63
2023/01/08 05:02:10;;;;;;;41.13;20.50;;;;;;;;;;776897;180;918867;-63
2023/01/08 05:04:36;;;;;;;33.67;20.67;;;;;;;;;;773343;181;912158;-69
2023/01/08 05:07:02;;;;;;;34.63;21.27;;;;;;;;;;774032;180;919104;-63
2023/01/08 05:09:28;;;;;;;31.80;20.17;;;;;;;;;;775617;176;920008;-63
2023/01/08 05:11:54;;;;;;;37.67;20.83;;;;;;;;;;755592;186;921095;-63
2023/01/08 05:14:19;;;;;;;29.33;18.00;;;;;;;;;;762607;180;918127;-63
2023/01/08 05:16:46;;;;;;;33.87;19.10;;;;;;;;;;770900;181;917495;-68
2023/01/08 05:19:11;;;;;;;36.83;20.13;;;;;;;;;;775089;181;826368;-63
2023/01/08 05:21:37;;;;;;;35.70;21.20;;;;;;;;;;770970;180;921495;-63
2023/01/08 05:24:03;;;;;;;30.52;18.73;;;;;;;;;;772205;181;919084;-65
2023/01/08 05:26:29;;;;;;;30.47;20.03;;;;;;;;;;779541;180;918543;-63
2023/01/08 05:28:55;;;;;;;34.03;20.67;;;;;;;;;;774211;181;917166;-69
2023/01/08 05:31:20;;;;;;;33.63;20.33;;;;;;;;;;772832;179;919665;-69
2023/01/08 05:33:46;;;;;;;34.67;19.93;;;;;;;;;;777945;182;920923;-62
2023/01/08 05:36:12;;;;;;;35.27;20.17;;;;;;;;;;774110;181;919630;-68
2023/01/08 05:38:38;;;;;;;39.30;21.13;;;;;;;;;;772214;182;945027;-69
2023/01/08 05:41:04;;;;;;;37.50;19.60;;;;;;;;;;768299;181;1020777;-62
2023/01/08 05:43:30;;;;;;;37.57;20.50;;;;;;;;;;772181;180;918883;-63
2023/01/08 05:45:56;;;;;;;35.60;20.07;;;;;;;;;;772443;180;919373;-69
2023/01/08 05:48:22;;;;;;;35.80;19.90;;;;;;;;;;761461;182;920225;-69
2023/01/08 05:50:49;;;;;;;34.60;21.13;;;;;;;;;;772986;182;918533;-69
2023/01/08 05:53:14;;;;;;;29.00;18.33;;;;;;;;;;771343;180;921175;-63
2023/01/08 05:55:40;;;;;;;36.73;19.57;;;;;;;;;;772894;182;918667;-63
2023/01/08 05:58:06;;;;;;;30.67;18.57;;;;;;;;;;773716;181;918937;-70
2023/01/08 06:00:32;;;;;;;34.40;21.10;;;;;;;;;;771169;181;817199;-70
2023/01/08 06:02:57;;;;;;;33.97;20.17;;;;;;;;;;769137;179;920503;-63
2023/01/08 06:05:23;;;;;;;35.97;21.10;;;;;;;;;;772304;181;918404;-63
2023/01/08 06:07:49;;;;;;;37.30;19.90;;;;;;;;;;775976;180;818263;-68
2023/01/08 06:10:15;;;;;;;35.27;19.70;;;;;;;;;;767904;179;918080;-62
2023/01/08 06:12:41;;;;;;;30.57;20.33;;;;;;;;;;768006;182;816678;-69
2023/01/08 06:15:07;;;;;;;31.17;19.43;;;;;;;;;;775097;181;919004;-62
2023/01/08 06:17:33;;;;;;;34.77;19.87;;;;;;;;;;772755;181;915190;-66
2023/01/08 06:19:59;;;;;;;39.40;21.30;;;;;;;;;;771062;182;939992;-69
2023/01/08 06:22:25;;;;;;;36.43;20.23;;;;;;;;;;776191;181;918787;-62
2023/01/08 06:24:50;;;;;;;33.80;20.57;;;;;;;;;;758479;182;919952;-68
2023/01/08 06:27:16;;;;;;;37.47;21.50;;;;;;;;;;771751;181;920231;-63
2023/01/08 06:29:43;;;;;;;31.70;19.20;;;;;;;;;;775706;181;918880;-69
2023/01/08 06:32:08;;;;;;;34.33;20.50;;;;;;;;;;777326;179;918655;-63
2023/01/08 06:34:34;;;;;;;35.83;18.70;;;;;;;;;;773136;179;919384;-63
2023/01/08 06:37:00;;;;;;;35.80;20.97;;;;;;;;;;765920;181;919182;-68
2023/01/08 06:39:26;;;;;;;36.07;20.97;;;;;;;;;;775794;180;921541;-63
2023/01/08 06:41:52;;;;;;;33.80;20.10;;;;;;;;;;768917;181;930342;-63
2023/01/08 06:44:18;;;;;;;35.45;20.05;;;;;;;;;;772256;181;921198;-69
2023/01/08 06:46:44;;;;;;;34.30;20.10;;;;;;;;;;775203;181;816521;-62
2023/01/08 06:49:10;;;;;;;37.30;19.33;;;;;;;;;;771145;181;918122;-62
2023/01/08 06:51:36;;;;;;;37.70;22.50;;;;;;;;;;754967;181;919843;-68
2023/01/08 06:54:01;;;;;;;38.63;21.60;;;;;;;;;;771727;181;818713;-63
2023/01/08 06:56:27;;;;;;;34.33;19.40;;;;;;;;;;767198;181;917713;-62
2023/01/08 06:58:53;;;;;;;33.20;20.10;;;;;;;;;;764442;181;1016685;-62
2023/01/08 07:01:21;;;;;;;32.43;19.40;;;;;;;;;;767940;180;883840;-62
2023/01/08 07:03:45;;;;;;;36.53;19.60;;;;;;;;;;774124;181;903895;-69
2023/01/08 07:06:15;;;;;;;36.70;20.27;;;;;;;;;;767682;181;919390;-70
2023/01/08 07:08:41;;;;;;;38.50;21.27;;;;;;;;;;767257;182;815505;-62
2023/01/08 07:11:06;;;;;;;42.07;20.20;;;;;;;;;;773604;181;931308;-63
2023/01/08 07:13:32;;;;;;;37.03;21.63;;;;;;;;;;768504;181;925501;-69
2023/01/08 07:15:58;;;;;;;41.40;21.37;;;;;;;;;;768638;181;921130;-62
2023/01/08 07:18:24;;;;;;;36.57;21.07;;;;;;;;;;769015;179;895168;-68
2023/01/08 07:20:50;;;;;;;36.95;21.00;;;;;;;;;;776597;180;915459;-68
2023/01/08 07:23:16;;;;;;;29.37;19.03;;;;;;;;;;767586;179;916040;-69
2023/01/08 07:25:41;;;;;;;33.70;20.60;;;;;;;;;;765339;181;920495;-68
2023/01/08 07:28:07;;;;;;;35.87;19.97;;;;;;;;;;772026;181;918674;-69
2023/01/08 07:30:33;;;;;;;31.57;19.33;;;;;;;;;;768907;181;927885;-63
2023/01/08 07:32:59;;;;;;;36.03;20.33;;;;;;;;;;766439;181;917879;-69
2023/01/08 07:35:25;;;;;;;37.20;20.27;;;;;;;;;;773142;182;912905;-62
2023/01/08 07:37:51;;;;;;;40.10;20.20;;;;;;;;;;765824;182;915084;-68
2023/01/08 07:40:17;;;;;;;32.33;19.65;;;;;;;;;;769194;181;881641;-62
2023/01/08 07:42:42;;;;;;;39.63;20.10;;;;;;;;;;770947;181;815461;-62
2023/01/08 07:45:09;;;;;;;41.73;20.47;;;;;;;;;;773233;179;815020;-63
2023/01/08 07:47:34;;;;;;;38.33;20.70;;;;;;;;;;768307;181;919117;-63
2023/01/08 07:50:00;;;;;;;40.72;20.52;;;;;;;;;;771667;181;906076;-68
2023/01/08 07:52:26;;;;;;;31.60;18.23;;;;;;;;;;770882;181;826789;-62
2023/01/08 07:54:52;;;;;;;34.30;18.33;;;;;;;;;;774024;179;922200;-69
2023/01/08 07:57:18;;;;;;;30.23;17.30;;;;;;;;;;774761;180;921722;-69
2023/01/08 07:59:44;;;;;;;31.53;19.57;;;;;;;;;;773595;181;819620;-70
2023/01/08 08:02:10;;;;;;;30.27;19.87;;;;;;;;;;758425;182;918072;-63
2023/01/08 08:04:35;;;;;;;35.13;18.37;;;;;;;;;;772362;180;916821;-63
2023/01/08 08:07:01;;;;;;;31.50;17.65;;;;;;;;;;775143;180;922749;-69
2023/01/08 08:09:27;;;;;;;30.33;18.10;;;;;;;;;;758121;182;828822;-63
2023/01/08 08:11:53;;;;;;;32.83;18.60;;;;;;;;;;772167;181;920090;-62
2023/01/08 08:14:19;;;;;;;36.07;20.90;;;;;;;;;;771356;182;918412;-68
2023/01/08 08:16:45;;;;;;;33.60;21.03;;;;;;;;;;777547;179;670586;-67
2023/01/08 08:19:11;;;;;;;33.77;18.53;;;;;;;;;;768265;181;717878;-67
2023/01/08 08:21:36;;;;;;;29.17;16.80;;;;;;;;;;772992;179;920727;-69
2023/01/08 08:24:03;;;;;;;36.83;18.53;;;;;;;;;;777420;180;717001;-62
2023/01/08 08:26:28;;;;;;;30.90;18.67;;;;;;;;;;766583;182;759952;-61
2023/01/08 08:28:54;;;;;;;33.70;18.87;;;;;;;;;;771730;181;918965;-69
2023/01/08 08:31:20;;;;;;;30.93;17.40;;;;;;;;;;778389;181;630574;-62
2023/01/08 08:33:47;;;;;;;28.63;18.00;;;;;;;;;;762280;182;917650;-68
2023/01/08 08:36:15;;;;;;;29.50;17.60;;;;;;;;;;772552;182;816733;-61
2023/01/08 08:38:41;;;;;;;34.60;18.50;;;;;;;;;;765372;180;812376;-61
2023/01/08 08:41:10;;;;;;;32.77;19.87;;;;;;;;;;771444;182;920762;-67
2023/01/08 08:43:37;;;;;;;31.17;18.30;;;;;;;;;;770540;180;918652;-67
2023/01/08 08:46:03;;;;;;;32.23;18.73;;;;;;;;;;771002;181;924813;-62
2023/01/08 08:48:29;;;;;;;29.27;18.57;;;;;;;;;;774644;181;919039;-68
2023/01/08 08:50:55;;;;;;;29.00;18.00;;;;;;;;;;766506;182;918891;-63
2023/01/08 08:53:21;;;;;;;31.25;18.58;;;;;;;;;;768528;182;921844;-69
2023/01/08 08:55:47;;;;;;;31.30;18.43;;;;;;;;;;768098;180;919936;-68
2023/01/08 08:58:13;;;;;;;27.77;17.73;;;;;;;;;;763867;181;818152;-67
2023/01/08 09:00:38;;;;;;;28.70;16.00;;;;;;;;;;767760;179;915693;-68
2023/01/08 09:03:04;;;;;;;31.17;19.10;;;;;;;;;;770295;180;818608;-67
2023/01/08 09:05:30;;;;;;;28.80;17.67;;;;;;;;;;774991;181;817178;-68
2023/01/08 09:07:56;;;;;;;30.23;18.63;;;;;;;;;;769589;181;918643;-68
2023/01/08 09:10:22;;;;;;;28.63;17.97;;;;;;;;;;770497;180;920156;-68
2023/01/08 09:12:48;;;;;;;30.73;17.30;;;;;;;;;;777235;182;880731;-68
2023/01/08 09:15:15;;;;;;;25.13;16.40;;;;;;;;;;769449;181;912100;-62
2023/01/08 09:17:41;;;;;;;32.03;16.50;;;;;;;;;;770014;181;897496;-62
2023/01/08 09:20:07;;;;;;;23.60;16.05;;;;;;;;;;763378;182;918768;-62
2023/01/08 09:22:33;;;;;;;26.33;16.47;;;;;;;;;;782985;176;929672;-62
2023/01/08 09:24:59;;;;;;;24.20;16.27;;;;;;;;;;770770;180;922543;-67
2023/01/08 09:27:25;;;;;;;25.83;14.90;;;;;;;;;;767177;180;1014928;-61
2023/01/08 09:29:51;;;;;;;23.80;15.07;;;;;;;;;;773591;182;921791;-62
2023/01/08 09:32:17;;;;;;;25.93;15.83;;;;;;;;;;766886;182;919304;-67
2023/01/08 09:34:43;;;;;;;24.55;14.27;;;;;;;;;;763645;181;919991;-62
2023/01/08 09:37:08;;;;;;;20.83;14.43;;;;;;;;;;772127;182;918934;-68
2023/01/08 09:39:35;;;;;;;18.30;12.50;;;;;;;;;;765343;182;920418;-62
2023/01/08 09:42:00;;;;;;;20.07;12.53;;;;;;;;;;771564;180;916155;-67
2023/01/08 09:44:26;;;;;;;21.40;13.50;;;;;;;;;;767764;180;1019536;-62
2023/01/08 09:46:52;;;;;;;19.87;12.20;;;;;;;;;;776254;180;806625;-62
2023/01/08 09:49:19;;;;;;;18.23;12.17;;;;;;;;;;761289;182;904013;-68
2023/01/08 09:51:45;;;;;;;17.70;12.20;;;;;;;;;;762410;179;811620;-68
2023/01/08 09:54:11;;;;;;;14.80;11.30;;;;;;;;;;777491;180;910972;-61
2023/01/08 09:56:37;;;;;;;16.57;11.43;;;;;;;;;;775267;180;634284;-67
2023/01/08 09:59:02;;;;;;;20.12;10.88;;;;;;;;;;771800;182;918830;-68
2023/01/08 10:01:28;;;;;;;16.00;12.50;;;;;;;;;;772712;182;920602;-68
2023/01/08 10:03:55;;;;;;;14.40;10.83;;;;;;;;;;771123;182;919528;-62
2023/01/08 10:06:21;;;;;;;18.63;12.13;;;;;;;;;;771586;180;919216;-61
2023/01/08 10:08:46;;;;;;;16.60;11.50;;;;;;;;;;772303;179;918078;-67
2023/01/08 10:11:12;;;;;;;15.77;10.80;;;;;;;;;;778383;180;917185;-68
2023/01/08 10:13:38;;;;;;;17.73;11.57;;;;;;;;;;772273;180;925438;-62
2023/01/08 10:16:06;;;;;;;17.23;11.63;;;;;;;;;;773705;179;925897;-68
2023/01/08 10:18:31;;;;;;;17.13;11.57;;;;;;;;;;774189;181;917665;-69
2023/01/08 10:20:57;;;;;;;14.57;11.05;;;;;;;;;;769807;180;818567;-62
2023/01/08 10:23:24;;;;;;;18.47;10.63;;;;;;;;;;773812;181;918945;-68
2023/01/08 10:25:51;;;;;;;14.27;11.00;;;;;;;;;;774382;180;904534;-62
2023/01/08 10:28:16;;;;;;;16.50;10.30;;;;;;;;;;767330;182;817772;-62
2023/01/08 10:30:42;;;;;;;15.10;10.47;;;;;;;;;;763120;182;918939;-68
2023/01/08 10:33:10;;;;;;;17.37;11.40;;;;;;;;;;766274;181;918947;-62
2023/01/08 10:35:37;;;;;;;15.07;10.10;;;;;;;;;;779454;180;810732;-68
2023/01/08 10:38:03;;;;;;;16.97;10.33;;;;;;;;;;770034;181;1020530;-61
2023/01/08 10:40:44;;;;;;;12.97;9.80;;;;;;;;;;773140;179;922374;-62
2023/01/08 10:43:14;;;;;;;15.20;10.23;;;;;;;;;;760232;182;912620;-62
2023/01/08 10:45:40;;;;;;;17.50;11.50;;;;;;;;;;771977;182;873931;-62
2023/01/08 10:48:07;;;;;;;15.40;10.30;;;;;;;;;;768090;181;878539;-70
2023/01/08 10:50:32;;;;;;;14.02;10.13;;;;;;;;;;766801;181;906098;-69
2023/01/08 10:52:58;;;;;;;15.00;9.27;;;;;;;;;;771197;182;919518;-62
2023/01/08 10:55:24;;;;;;;15.30;10.07;;;;;;;;;;750302;186;921722;-68
2023/01/08 10:57:54;;;;;;;15.70;10.33;;;;;;;;;;765206;181;924555;-62
2023/01/08 11:00:23;;;;;;;13.13;10.40;;;;;;;;;;770185;180;885457;-68
2023/01/08 11:02:49;;;;;;;15.10;9.00;;;;;;;;;;767052;180;819187;-68
2023/01/08 11:05:14;;;;;;;14.77;8.90;;;;;;;;;;767316;181;818700;-62
2023/01/08 11:07:40;;;;;;;12.63;9.05;;;;;;;;;;767349;182;917254;-68
2023/01/08 11:10:07;;;;;;;15.07;9.87;;;;;;;;;;772484;181;817486;-68
2023/01/08 11:12:34;;;;;;;15.80;11.00;;;;;;;;;;761103;182;714441;-68
2023/01/08 11:14:59;;;;;;;15.03;10.10;;;;;;;;;;757048;182;919184;-68
2023/01/08 11:17:25;;;;;;;14.30;11.10;;;;;;;;;;756005;182;922235;-68
2023/01/08 11:19:51;;;;;;;15.33;9.50;;;;;;;;;;772839;180;915913;-70
2023/01/08 11:22:17;;;;;;;15.57;10.80;;;;;;;;;;767953;180;912718;-63
2023/01/08 11:24:43;;;;;;;13.13;9.83;;;;;;;;;;770314;181;919241;-62
2023/01/08 11:27:24;;;;;;;14.80;9.37;;;;;;;;;;777081;181;870227;-69
2023/01/08 11:29:56;;;;;;;23.90;11.23;;;;;;;;;;770221;179;919024;-70
2023/01/08 11:32:23;;;;;;;14.13;9.30;;;;;;;;;;771921;181;913701;-63
2023/01/08 11:34:49;;;;;;;14.80;11.13;;;;;;;;;;762560;182;819793;-71
2023/01/08 11:37:22;;;;;;;16.20;9.37;;;;;;;;;;764595;181;913640;-63
2023/01/08 11:39:48;;;;;;;13.90;8.90;;;;;;;;;;774644;182;716292;-63
2023/01/08 11:42:14;;;;;;;11.23;7.73;;;;;;;;;;767895;181;919465;-68
2023/01/08 11:44:57;;;;;;;13.77;9.37;;;;;;;;;;771846;181;918800;-64
2023/01/08 11:47:27;;;;;;;12.80;9.13;;;;;;;;;;770071;181;924807;-63
2023/01/08 11:49:55;;;;;;;13.90;9.00;;;;;;;;;;762211;181;919034;-69
2023/01/08 11:52:37;;;;;;;14.20;9.10;;;;;;;;;;771984;182;919208;-63
2023/01/08 11:55:09;;;;;;;11.10;8.37;;;;;;;;;;770871;178;918804;-64
2023/01/08 11:57:36;;;;;;;14.20;9.70;;;;;;;;;;766072;179;1009583;-69
2023/01/08 12:00:10;;;;;;;13.43;10.13;;;;;;;;;;769998;181;816463;-62
2023/01/08 12:02:55;;;;;;;12.80;8.37;;;;;;;;;;767754;181;917854;-69
2023/01/08 12:05:23;;;;;;;14.20;9.13;;;;;;;;;;769326;181;918414;-63
2023/01/08 12:08:04;;;;;;;11.60;7.20;;;;;;;;;;767775;181;918810;-63
2023/01/08 12:10:30;;;;;;;13.90;9.37;;;;;;;;;;766055;180;913827;-64
2023/01/08 12:13:01;;;;;;;11.77;8.20;;;;;;;;;;776864;180;815022;-63
2023/01/08 12:15:30;;;;;;;14.00;10.20;;;;;;;;;;766644;181;829767;-69
2023/01/08 12:17:59;;;;;;;13.87;8.93;;;;;;;;;;767667;181;909722;-63
2023/01/08 12:20:32;;;;;;;11.80;8.50;;;;;;;;;;774486;181;912121;-64
2023/01/08 12:22:59;;;;;;;12.30;8.47;;;;;;;;;;773489;180;915301;-70
2023/01/08 12:25:27;;;;;;;11.10;8.23;;;;;;;;;;771316;180;849538;-63
2023/01/08 12:27:53;;;;;;;12.60;8.27;;;;;;;;;;763474;180;938540;-64
2023/01/08 12:30:25;;;;;;;14.65;8.00;;;;;;;;;;772395;178;944678;-68
2023/01/08 12:32:54;;;;;;;12.90;9.53;;;;;;;;;;778265;180;914796;-63
2023/01/08 12:35:19;;;;;;;12.33;7.47;;;;;;;;;;772886;179;918766;-63
2023/01/08 12:37:46;;;;;;;12.10;8.47;;;;;;;;;;771267;180;926956;-63
2023/01/08 12:40:17;;;;;;;20.30;9.83;;;;;;;;;;771628;181;918520;-64
2023/01/08 12:42:42;;;;;;;12.70;8.40;;;;;;;;;;771567;181;916933;-63
2023/01/08 12:45:11;;;;;;;12.70;8.27;;;;;;;;;;770244;182;918982;-70
2023/01/08 12:47:37;;;;;;;12.82;8.10;;;;;;;;;;760558;181;919665;-70
2023/01/08 12:50:05;;;;;;;12.67;8.87;;;;;;;;;;773023;181;928023;-62
2023/01/08 12:52:35;;;;;;;13.43;9.10;;;;;;;;;;769091;181;834556;-63
2023/01/08 12:54:57;;;;;;;12.90;8.00;;;;;;;;;;771377;182;866803;-70
2023/01/08 12:57:24;;;;;;;12.97;8.03;;;;;;;;;;784344;175;810148;-69
2023/01/08 12:59:50;;;;;;;10.63;6.70;;;;;;;;;;777561;179;814434;-62
2023/01/08 13:02:37;;;;;;;12.00;8.23;;;;;;;;;;772098;180;829987;-63
2023/01/08 13:05:09;;;;;;;12.17;7.70;;;;;;;;;;756451;181;919247;-63
2023/01/08 13:07:36;;;;;;;16.27;8.00;;;;;;;;;;769240;181;848449;-62
2023/01/08 13:10:02;;;;;;;12.57;8.33;;;;;;;;;;767744;181;824195;-70
2023/01/08 13:12:31;;;;;;;14.23;8.87;;;;;;;;;;776429;179;911309;-63
2023/01/08 13:14:57;;;;;;;11.53;8.37;;;;;;;;;;770948;179;791033;-63
2023/01/08 13:17:24;;;;;;;18.57;12.30;;;;;;;;;;766060;181;1003876;-69
2023/01/08 13:19:51;;;;;;;15.37;8.63;;;;;;;;;;770569;181;1021224;-63
2023/01/08 13:22:16;;;;;;;10.90;7.73;;;;;;;;;;767158;180;915990;-62
2023/01/08 13:24:43;;;;;;;13.83;7.70;;;;;;;;;;769396;181;919200;-63
2023/01/08 13:27:14;;;;;;;10.67;7.37;;;;;;;;;;767981;181;920650;-63
2023/01/08 13:29:42;;;;;;;13.63;8.80;;;;;;;;;;765763;181;906098;-62
2023/01/08 13:32:24;;;;;;;9.73;6.80;;;;;;;;;;768800;181;919307;-63
2023/01/08 13:34:56;;;;;;;12.73;8.93;;;;;;;;;;768943;179;917467;-63
2023/01/08 13:37:23;;;;;;;13.73;8.48;;;;;;;;;;765716;179;919477;-69
2023/01/08 13:39:48;;;;;;;14.40;9.63;;;;;;;;;;769285;180;915354;-63
2023/01/08 13:42:19;;;;;;;12.50;8.53;;;;;;;;;;775808;180;908750;-69
2023/01/08 13:44:49;;;;;;;14.93;8.73;;;;;;;;;;773059;179;916904;-63
2023/01/08 13:47:15;;;;;;;12.63;8.03;;;;;;;;;;770409;181;924868;-63
2023/01/08 13:49:41;;;;;;;15.13;9.33;;;;;;;;;;771522;181;851264;-70
2023/01/08 13:52:06;;;;;;;15.90;9.60;;;;;;;;;;767035;180;816191;-63
2023/01/08 13:54:34;;;;;;;14.83;9.80;;;;;;;;;;768231;181;931026;-62
2023/01/08 13:57:02;;;;;;;15.63;9.67;;;;;;;;;;769682;180;918342;-70
2023/01/08 13:59:28;;;;;;;12.60;8.30;;;;;;;;;;774244;181;920047;-63
2023/01/08 14:01:54;;;;;;;14.67;9.00;;;;;;;;;;770551;181;919004;-69
2023/01/08 14:04:20;;;;;;;14.80;7.73;;;;;;;;;;769729;181;920761;-63